createdAt,value
2019-03-17T00:02:05.709Z,24.09
2019-03-17T00:04:36.402Z,24.07
2019-03-17T00:07:04.563Z,24.05
2019-03-17T00:09:34.214Z,24.04
2019-03-17T00:12:02.127Z,24.02
2019-03-17T00:14:29.563Z,24.00
2019-03-17T00:16:57.656Z,23.99
2019-03-17T00:19:27.674Z,23.98
2019-03-17T00:21:55.316Z,23.96
2019-03-17T00:24:24.385Z,23.93
2019-03-17T00:26:52.455Z,23.92
2019-03-17T00:29:20.478Z,23.91
2019-03-17T00:31:48.449Z,23.69
2019-03-17T00:34:16.769Z,23.88
2019-03-17T00:36:44.521Z,23.89
2019-03-17T00:39:13.021Z,23.87
2019-03-17T00:41:40.953Z,23.83
2019-03-17T00:44:08.898Z,23.80
2019-03-17T00:46:37.790Z,23.79
2019-03-17T00:49:05.521Z,23.78
2019-03-17T00:51:33.414Z,23.75
2019-03-17T00:54:01.125Z,23.75
2019-03-17T00:56:29.223Z,23.75
2019-03-17T00:58:57.486Z,23.72
2019-03-17T01:01:25.303Z,23.73
2019-03-17T01:03:53.036Z,23.70
2019-03-17T01:06:20.959Z,23.71
2019-03-17T01:08:50.631Z,23.69
2019-03-17T01:11:19.308Z,23.69
2019-03-17T01:13:47.424Z,23.66
2019-03-17T01:16:15.721Z,23.61
2019-03-17T01:18:43.451Z,23.59
2019-03-17T01:21:11.536Z,23.59
2019-03-17T01:23:39.289Z,23.57
2019-03-17T01:26:07.224Z,23.55
2019-03-17T01:28:36.017Z,23.56
2019-03-17T01:31:03.976Z,23.53
2019-03-17T01:33:31.789Z,23.53
2019-03-17T01:35:59.538Z,23.52
2019-03-17T01:38:27.630Z,23.53
2019-03-17T01:40:55.279Z,23.51
2019-03-17T01:43:23.185Z,23.48
2019-03-17T01:45:51.498Z,23.48
2019-03-17T01:48:19.316Z,23.46
2019-03-17T01:50:48.873Z,23.44
2019-03-17T01:53:16.639Z,23.43
2019-03-17T01:55:44.387Z,23.40
2019-03-17T01:58:13.315Z,23.37
2019-03-17T02:00:41.175Z,23.35
2019-03-17T02:03:09.236Z,23.33
2019-03-17T02:05:37.387Z,23.31
2019-03-17T02:08:05.188Z,23.35
2019-03-17T02:10:35.369Z,23.32
2019-03-17T02:13:03.085Z,23.27
2019-03-17T02:15:30.950Z,23.26
2019-03-17T02:17:58.941Z,23.25
2019-03-17T02:20:27.161Z,23.25
2019-03-17T02:22:55.283Z,23.28
2019-03-17T02:25:23.606Z,23.29
2019-03-17T02:28:26.910Z,23.29
2019-03-17T02:31:14.487Z,23.28
2019-03-17T02:33:43.192Z,23.22
2019-03-17T02:36:11.188Z,23.21
2019-03-17T02:38:39.059Z,23.18
2019-03-17T02:41:06.708Z,23.16
2019-03-17T02:43:34.523Z,23.15
2019-03-17T02:46:03.942Z,23.11
2019-03-17T02:48:32.644Z,23.12
2019-03-17T02:51:00.408Z,23.13
2019-03-17T02:53:29.181Z,23.13
2019-03-17T02:55:58.303Z,23.10
2019-03-17T02:58:26.736Z,23.06
2019-03-17T03:00:54.802Z,23.06
2019-03-17T03:03:23.506Z,23.02
2019-03-17T03:05:55.401Z,23.03
2019-03-17T03:08:21.043Z,22.97
2019-03-17T03:10:48.942Z,22.99
2019-03-17T03:13:17.013Z,22.97
2019-03-17T03:15:45.230Z,22.94
2019-03-17T03:18:13.025Z,22.91
2019-03-17T03:20:41.322Z,22.89
2019-03-17T03:23:09.269Z,22.89
2019-03-17T03:25:37.298Z,22.89
2019-03-17T03:28:05.182Z,22.88
2019-03-17T03:30:33.859Z,22.84
2019-03-17T03:33:01.933Z,22.82
2019-03-17T03:35:31.450Z,22.82
2019-03-17T03:37:59.331Z,22.79
2019-03-17T03:40:28.037Z,22.77
2019-03-17T03:42:56.724Z,22.77
2019-03-17T03:45:25.296Z,22.75
2019-03-17T03:47:53.629Z,22.76
2019-03-17T03:50:21.408Z,22.72
2019-03-17T03:52:49.190Z,22.71
2019-03-17T03:55:16.858Z,22.71
2019-03-17T03:57:45.083Z,22.72
2019-03-17T04:00:12.807Z,22.71
2019-03-17T04:02:40.893Z,22.72
2019-03-17T04:05:08.615Z,22.72
2019-03-17T04:07:36.631Z,22.72
2019-03-17T04:10:05.483Z,22.71
2019-03-17T04:12:33.647Z,22.66
2019-03-17T04:15:01.503Z,22.70
2019-03-17T04:17:29.256Z,22.70
2019-03-17T04:19:57.928Z,22.74
2019-03-17T04:22:28.595Z,22.70
2019-03-17T04:24:56.872Z,22.73
2019-03-17T04:27:24.600Z,22.74
2019-03-17T04:29:53.437Z,22.74
2019-03-17T04:32:21.552Z,22.72
2019-03-17T04:34:49.289Z,22.71
2019-03-17T04:37:18.037Z,22.71
2019-03-17T04:39:45.853Z,22.71
2019-03-17T04:42:13.676Z,22.67
2019-03-17T04:44:41.452Z,22.70
2019-03-17T04:47:09.417Z,22.72
2019-03-17T04:49:37.769Z,22.73
2019-03-17T04:52:06.151Z,22.74
2019-03-17T04:54:33.890Z,22.75
2019-03-17T04:57:02.402Z,22.76
2019-03-17T04:59:30.376Z,22.77
2019-03-17T05:01:58.199Z,22.80
2019-03-17T05:04:28.747Z,22.82
2019-03-17T05:06:57.055Z,22.81
2019-03-17T05:09:24.751Z,22.80
2019-03-17T05:11:52.758Z,22.78
2019-03-17T05:14:20.891Z,22.77
2019-03-17T05:16:49.503Z,22.75
2019-03-17T05:19:17.503Z,22.74
2019-03-17T05:21:45.785Z,22.75
2019-03-17T05:24:14.058Z,22.75
2019-03-17T05:26:41.876Z,22.76
2019-03-17T05:29:10.359Z,22.77
2019-03-17T05:31:38.216Z,22.79
2019-03-17T05:34:05.905Z,22.77
2019-03-17T05:36:35.356Z,22.77
2019-03-17T05:39:05.496Z,22.77
2019-03-17T05:41:33.309Z,22.75
2019-03-17T05:44:01.393Z,22.75
2019-03-17T05:46:29.352Z,22.78
2019-03-17T05:48:57.489Z,22.75
2019-03-17T05:51:26.951Z,22.78
2019-03-17T05:53:55.711Z,22.75
2019-03-17T05:56:24.082Z,22.71
2019-03-17T05:58:51.786Z,22.75
2019-03-17T06:01:20.223Z,22.74
2019-03-17T06:03:48.092Z,22.72
2019-03-17T06:06:15.916Z,22.75
2019-03-17T06:08:43.631Z,22.74
2019-03-17T06:11:11.179Z,22.73
2019-03-17T06:13:39.095Z,22.68
2019-03-17T06:16:07.496Z,22.77
2019-03-17T06:18:36.372Z,22.77
2019-03-17T06:21:04.675Z,22.77
2019-03-17T06:23:32.737Z,22.77
2019-03-17T06:26:01.292Z,22.81
2019-03-17T06:28:29.044Z,22.85
2019-03-17T06:30:58.174Z,22.86
2019-03-17T06:33:26.937Z,22.87
2019-03-17T06:35:55.263Z,22.84
2019-03-17T06:38:23.662Z,22.82
2019-03-17T06:40:53.035Z,22.84
2019-03-17T06:43:20.769Z,22.84
2019-03-17T06:45:49.436Z,22.87
2019-03-17T06:48:17.296Z,22.90
2019-03-17T06:50:45.006Z,22.91
2019-03-17T06:53:12.958Z,22.92
2019-03-17T06:55:40.626Z,22.73
2019-03-17T06:58:09.466Z,22.97
2019-03-17T07:00:37.283Z,22.99
2019-03-17T07:03:06.619Z,23.06
2019-03-17T07:05:34.611Z,23.09
2019-03-17T07:08:03.066Z,23.17
2019-03-17T07:10:31.151Z,23.21
2019-03-17T07:12:59.175Z,23.25
2019-03-17T07:15:27.347Z,23.29
2019-03-17T07:17:55.637Z,23.32
2019-03-17T07:20:23.387Z,23.37
2019-03-17T07:22:52.147Z,23.44
2019-03-17T07:25:20.202Z,23.47
2019-03-17T07:27:48.141Z,23.51
2019-03-17T07:30:16.450Z,23.58
2019-03-17T07:32:44.191Z,23.64
2019-03-17T07:35:12.135Z,23.70
2019-03-17T07:37:40.254Z,23.76
2019-03-17T07:40:09.807Z,23.79
2019-03-17T07:42:38.138Z,23.86
2019-03-17T07:45:06.805Z,23.91
2019-03-17T07:47:35.742Z,23.94
2019-03-17T07:50:05.817Z,23.99
2019-03-17T07:52:33.791Z,24.03
2019-03-17T07:55:02.502Z,24.07
2019-03-17T07:57:31.694Z,24.12
2019-03-17T08:00:01.844Z,24.19
2019-03-17T08:02:29.627Z,24.26
2019-03-17T08:04:57.393Z,24.33
2019-03-17T08:07:25.211Z,24.37
2019-03-17T08:09:53.042Z,24.44
2019-03-17T08:12:21.505Z,24.52
2019-03-17T08:14:49.547Z,24.58
2019-03-17T08:17:17.228Z,24.61
2019-03-17T08:19:45.261Z,24.67
2019-03-17T08:22:13.135Z,24.72
2019-03-17T08:24:41.176Z,24.74
2019-03-17T08:27:08.871Z,24.75
2019-03-17T08:29:37.181Z,24.79
2019-03-17T08:32:05.530Z,24.82
2019-03-17T08:34:33.902Z,24.85
2019-03-17T08:37:02.494Z,24.89
2019-03-17T08:39:30.490Z,24.88
2019-03-17T08:41:58.830Z,24.87
2019-03-17T08:44:26.250Z,24.93
2019-03-17T08:46:53.964Z,24.96
2019-03-17T08:49:22.248Z,25.00
2019-03-17T08:51:50.255Z,25.04
2019-03-17T08:54:17.846Z,25.05
2019-03-17T08:56:45.748Z,25.07
2019-03-17T08:59:14.211Z,25.07
2019-03-17T09:01:42.632Z,25.08
2019-03-17T09:04:10.838Z,25.12
2019-03-17T09:06:39.414Z,25.16
2019-03-17T09:09:08.465Z,25.15
2019-03-17T09:11:36.431Z,25.18
2019-03-17T09:14:09.851Z,25.17
2019-03-17T09:16:39.245Z,25.18
2019-03-17T09:19:07.985Z,25.19
2019-03-17T09:21:36.200Z,25.23
2019-03-17T09:24:16.291Z,25.26
2019-03-17T09:26:34.243Z,25.28
2019-03-17T09:29:01.962Z,25.28
2019-03-17T09:31:30.835Z,25.34
2019-03-17T09:33:59.341Z,25.33
2019-03-17T09:36:27.708Z,25.33
2019-03-17T09:38:56.134Z,25.34
2019-03-17T09:41:24.454Z,25.36
2019-03-17T09:43:52.759Z,25.43
2019-03-17T09:46:20.608Z,25.51
2019-03-17T09:48:48.310Z,25.47
2019-03-17T09:51:16.651Z,25.48
2019-03-17T09:53:44.537Z,25.46
2019-03-17T09:56:13.006Z,25.47
2019-03-17T09:58:41.640Z,25.52
2019-03-17T10:01:09.747Z,25.57
2019-03-17T10:03:38.550Z,25.59
2019-03-17T10:06:06.856Z,25.61
2019-03-17T10:08:35.012Z,25.61
2019-03-17T10:11:02.732Z,25.60
2019-03-17T10:13:30.919Z,25.63
2019-03-17T10:15:58.413Z,25.69
2019-03-17T10:18:26.183Z,25.76
2019-03-17T10:20:54.236Z,25.87
2019-03-17T10:23:22.649Z,25.95
2019-03-17T10:25:50.794Z,25.96
2019-03-17T10:28:18.903Z,25.94
2019-03-17T10:30:46.915Z,26.01
2019-03-17T10:33:14.796Z,26.10
2019-03-17T10:35:42.779Z,26.25
2019-03-17T10:38:11.162Z,26.27
2019-03-17T10:40:40.473Z,26.24
2019-03-17T10:43:08.869Z,26.27
2019-03-17T10:45:36.707Z,26.33
2019-03-17T10:48:04.911Z,26.40
2019-03-17T10:50:32.899Z,26.33
2019-03-17T10:53:01.338Z,26.39
2019-03-17T10:55:29.345Z,26.44
2019-03-17T10:57:57.028Z,26.51
2019-03-17T11:00:24.489Z,26.62
2019-03-17T11:02:52.578Z,26.87
2019-03-17T11:05:20.757Z,26.92
2019-03-17T11:07:48.731Z,26.85
2019-03-17T11:10:16.323Z,26.94
2019-03-17T11:12:44.144Z,27.04
2019-03-17T11:15:12.841Z,27.04
2019-03-17T11:17:40.805Z,27.10
2019-03-17T11:20:10.601Z,27.11
2019-03-17T11:22:38.028Z,27.16
2019-03-17T11:25:07.673Z,27.20
2019-03-17T11:27:35.786Z,27.23
2019-03-17T11:30:05.158Z,27.27
2019-03-17T11:32:32.838Z,27.20
2019-03-17T11:35:02.112Z,27.19
2019-03-17T11:37:30.367Z,27.14
2019-03-17T11:39:58.443Z,27.05
2019-03-17T11:42:25.978Z,27.11
2019-03-17T11:44:53.775Z,27.18
2019-03-17T11:47:23.075Z,27.26
2019-03-17T11:49:51.542Z,27.14
2019-03-17T11:52:19.532Z,27.31
2019-03-17T11:54:47.772Z,27.28
2019-03-17T11:57:15.650Z,27.35
2019-03-17T11:59:44.407Z,27.42
2019-03-17T12:02:12.173Z,27.46
2019-03-17T12:04:40.061Z,27.44
2019-03-17T12:07:10.701Z,27.35
2019-03-17T12:09:49.549Z,27.35
2019-03-17T12:12:08.901Z,27.33
2019-03-17T12:14:36.889Z,27.35
2019-03-17T12:17:04.724Z,27.27
2019-03-17T12:19:33.002Z,27.27
2019-03-17T12:22:09.307Z,27.33
2019-03-17T12:24:36.670Z,27.30
2019-03-17T12:27:04.043Z,27.29
2019-03-17T12:29:32.500Z,27.33
2019-03-17T12:32:01.708Z,27.40
2019-03-17T12:34:30.500Z,27.41
2019-03-17T12:36:59.216Z,27.39
2019-03-17T12:39:27.511Z,27.33
2019-03-17T12:41:58.254Z,27.33
2019-03-17T12:44:25.823Z,27.30
2019-03-17T12:46:53.533Z,26.98
2019-03-17T12:49:22.867Z,27.16
2019-03-17T12:51:50.299Z,27.06
2019-03-17T12:54:18.356Z,27.06
2019-03-17T12:56:46.141Z,27.08
2019-03-17T12:59:13.917Z,27.11
2019-03-17T13:01:41.880Z,27.04
2019-03-17T13:04:09.761Z,26.91
2019-03-17T13:06:38.408Z,26.86
2019-03-17T13:09:07.276Z,26.73
2019-03-17T13:11:36.143Z,26.50
2019-03-17T13:14:06.776Z,26.42
2019-03-17T13:16:34.098Z,26.38
2019-03-17T13:19:02.003Z,26.43
2019-03-17T13:21:31.850Z,26.39
2019-03-17T13:23:59.695Z,26.28
2019-03-17T13:26:27.881Z,26.17
2019-03-17T13:28:57.488Z,26.05
2019-03-17T13:31:25.756Z,26.09
2019-03-17T13:33:53.464Z,26.12
2019-03-17T13:36:21.552Z,26.08
2019-03-17T13:38:49.667Z,25.96
2019-03-17T13:41:18.205Z,25.92
2019-03-17T13:43:46.928Z,25.85
2019-03-17T13:46:15.433Z,25.75
2019-03-17T13:48:43.220Z,25.69
2019-03-17T13:51:11.189Z,25.58
2019-03-17T13:53:41.489Z,25.51
2019-03-17T13:56:09.193Z,25.38
2019-03-17T13:58:37.233Z,25.38
2019-03-17T14:01:05.689Z,25.31
2019-03-17T14:03:33.497Z,25.20
2019-03-17T14:06:01.652Z,25.31
2019-03-17T14:08:29.941Z,25.28
2019-03-17T14:10:57.674Z,25.25
2019-03-17T14:13:25.822Z,25.26
2019-03-17T14:15:53.638Z,25.23
2019-03-17T14:18:22.164Z,25.18
2019-03-17T14:20:50.232Z,25.13
2019-03-17T14:24:58.317Z,25.09
2019-03-17T14:27:25.782Z,25.04
2019-03-17T14:29:53.556Z,25.02
2019-03-17T14:32:20.627Z,25.03
2019-03-17T14:34:48.036Z,25.01
2019-03-17T14:37:15.446Z,24.95
2019-03-17T14:39:42.715Z,24.92
2019-03-17T14:42:10.105Z,24.87
2019-03-17T14:44:37.435Z,24.80
2019-03-17T14:47:04.747Z,24.71
2019-03-17T14:49:32.774Z,24.69
2019-03-17T14:52:00.462Z,24.67
2019-03-17T14:54:27.799Z,24.64
2019-03-17T14:56:55.170Z,24.63
2019-03-17T14:59:22.558Z,24.63
2019-03-17T15:01:49.973Z,24.58
2019-03-17T15:04:17.633Z,24.62
2019-03-17T15:06:45.494Z,24.58
2019-03-17T15:11:54.900Z,24.50
2019-03-17T15:14:23.351Z,24.47
2019-03-17T15:16:50.514Z,24.43
2019-03-17T15:19:17.934Z,24.45
2019-03-17T15:21:46.091Z,24.40
2019-03-17T15:24:13.195Z,24.41
2019-03-17T15:26:40.312Z,24.42
2019-03-17T15:29:07.623Z,24.36
2019-03-17T15:31:35.010Z,24.36
2019-03-17T15:34:02.665Z,24.37
2019-03-17T15:36:29.722Z,24.34
2019-03-17T15:38:58.097Z,24.31
2019-03-17T15:41:25.134Z,24.33
2019-03-17T15:43:53.209Z,24.31
2019-03-17T15:46:20.932Z,24.37
2019-03-17T15:48:48.432Z,24.30
2019-03-17T15:51:20.666Z,24.31
2019-03-17T15:53:46.451Z,24.31
2019-03-17T15:56:14.350Z,24.28
2019-03-17T15:58:43.128Z,24.27
2019-03-17T16:01:10.868Z,24.25
2019-03-17T16:03:38.809Z,24.25
2019-03-17T16:06:06.886Z,24.22
2019-03-17T16:08:34.691Z,24.17
2019-03-17T16:11:02.728Z,24.26
2019-03-17T16:13:30.722Z,24.26
2019-03-17T16:15:58.561Z,24.28
2019-03-17T16:18:26.717Z,24.24
2019-03-17T16:20:54.851Z,24.28
2019-03-17T16:23:23.513Z,24.26
2019-03-17T16:25:51.779Z,24.27
2019-03-17T16:28:19.960Z,24.24
2019-03-17T16:30:48.074Z,24.22
2019-03-17T16:33:15.915Z,24.23
2019-03-17T16:35:46.367Z,24.21
2019-03-17T16:38:15.069Z,24.20
2019-03-17T16:40:42.785Z,24.18
2019-03-17T16:43:10.838Z,24.19
2019-03-17T16:45:39.382Z,24.17
2019-03-17T16:48:07.457Z,24.14
2019-03-17T16:50:35.314Z,24.12
2019-03-17T16:53:03.745Z,24.13
2019-03-17T16:55:32.291Z,24.06
2019-03-17T16:58:00.118Z,24.04
2019-03-17T17:00:28.284Z,24.02
2019-03-17T17:02:55.964Z,24.08
2019-03-17T17:05:24.094Z,24.05
2019-03-17T17:07:52.616Z,23.91
2019-03-17T17:10:20.314Z,24.02
2019-03-17T17:12:48.260Z,24.00
2019-03-17T17:15:19.618Z,23.96
2019-03-17T17:17:48.084Z,23.93
2019-03-17T17:20:21.845Z,24.09
2019-03-17T17:22:49.883Z,24.11
2019-03-17T17:25:18.271Z,24.08
2019-03-17T17:27:46.618Z,24.03
2019-03-17T17:30:16.839Z,23.96
2019-03-17T17:32:45.090Z,24.00
2019-03-17T17:35:14.287Z,24.01
2019-03-17T17:37:43.598Z,24.01
2019-03-17T17:40:13.631Z,24.01
2019-03-17T17:42:41.981Z,24.01
2019-03-17T17:45:12.513Z,23.99
2019-03-17T17:47:40.999Z,23.95
2019-03-17T17:50:11.276Z,23.97
2019-03-17T17:52:39.237Z,23.93
2019-03-17T17:55:07.358Z,23.95
2019-03-17T17:57:35.280Z,24.02
2019-03-17T18:00:03.935Z,24.04
2019-03-17T18:02:31.954Z,24.00
2019-03-17T18:05:00.287Z,24.06
2019-03-17T18:07:28.251Z,24.10
2019-03-17T18:09:56.398Z,24.16
2019-03-17T18:12:24.563Z,24.17
2019-03-17T18:14:54.667Z,24.18
2019-03-17T18:17:22.262Z,24.18
2019-03-17T18:19:49.977Z,24.30
2019-03-17T18:22:18.031Z,24.37
2019-03-17T18:24:46.262Z,24.37
2019-03-17T18:27:14.365Z,24.38
2019-03-17T18:29:42.366Z,24.28
2019-03-17T18:32:13.203Z,24.27
2019-03-17T18:34:42.289Z,24.26
2019-03-17T18:37:10.402Z,24.27
2019-03-17T18:39:38.687Z,24.28
2019-03-17T18:42:09.909Z,24.33
2019-03-17T18:44:38.554Z,24.31
2019-03-17T18:47:06.990Z,24.29
2019-03-17T18:49:36.557Z,24.31
2019-03-17T18:52:04.816Z,24.32
2019-03-17T18:54:32.955Z,24.38
2019-03-17T18:57:00.280Z,24.39
2019-03-17T18:59:29.336Z,24.34
2019-03-17T19:01:58.025Z,24.34
2019-03-17T19:04:26.705Z,24.36
2019-03-17T19:06:56.898Z,24.33
2019-03-17T19:09:25.022Z,24.34
2019-03-17T19:11:52.820Z,24.34
2019-03-17T19:14:20.569Z,24.37
2019-03-17T19:16:48.737Z,24.39
2019-03-17T19:19:16.752Z,24.45
2019-03-17T19:21:45.117Z,24.49
2019-03-17T19:24:12.724Z,24.51
2019-03-17T19:26:40.250Z,24.56
2019-03-17T19:29:08.483Z,24.60
2019-03-17T19:31:36.865Z,24.60
2019-03-17T19:34:04.597Z,24.65
2019-03-17T19:36:32.734Z,24.67
2019-03-17T19:39:00.915Z,24.63
2019-03-17T19:41:29.046Z,24.60
2019-03-17T19:43:57.107Z,24.56
2019-03-17T19:46:25.415Z,24.54
2019-03-17T19:48:53.505Z,24.53
2019-03-17T19:51:22.091Z,24.55
2019-03-17T19:53:50.047Z,24.55
2019-03-17T19:56:19.168Z,24.56
2019-03-17T19:58:47.176Z,24.62
2019-03-17T20:01:15.680Z,24.62
2019-03-17T20:03:43.517Z,24.62
2019-03-17T20:06:11.736Z,24.60
2019-03-17T20:08:40.521Z,24.62
2019-03-17T20:11:09.184Z,24.62
2019-03-17T20:13:37.401Z,24.59
2019-03-17T20:16:05.779Z,24.60
2019-03-17T20:18:33.904Z,24.43
2019-03-17T20:21:01.922Z,24.60
2019-03-17T20:23:30.286Z,24.59
2019-03-17T20:25:58.634Z,24.61
2019-03-17T20:28:27.363Z,24.59
2019-03-17T20:30:55.422Z,24.64
2019-03-17T20:33:23.406Z,24.72
2019-03-17T20:35:51.127Z,24.67
2019-03-17T20:38:21.059Z,24.67
2019-03-17T20:40:50.137Z,24.64
2019-03-17T20:43:29.273Z,24.63
2019-03-17T20:45:48.216Z,24.61
2019-03-17T20:48:16.893Z,24.65
2019-03-17T20:50:46.837Z,24.78
2019-03-17T20:53:14.697Z,24.66
2019-03-17T20:55:42.636Z,24.61
2019-03-17T20:58:10.946Z,24.60
2019-03-17T21:00:38.898Z,24.57
2019-03-17T21:03:06.669Z,24.54
2019-03-17T21:05:35.919Z,24.52
2019-03-17T21:08:03.987Z,24.50
2019-03-17T21:10:32.174Z,24.48
2019-03-17T21:13:00.206Z,24.46
2019-03-17T21:15:28.198Z,24.43
2019-03-17T21:17:56.299Z,24.39
2019-03-17T21:20:24.958Z,24.36
2019-03-17T21:22:53.010Z,24.30
2019-03-17T21:25:21.344Z,24.30
2019-03-17T21:27:49.607Z,24.28
2019-03-17T21:30:20.009Z,24.26
2019-03-17T21:32:48.371Z,24.25
2019-03-17T21:35:18.892Z,24.21
2019-03-17T21:37:46.689Z,24.19
2019-03-17T21:40:15.262Z,24.21
2019-03-17T21:42:43.228Z,24.19
2019-03-17T21:45:11.793Z,24.23
2019-03-17T21:47:39.564Z,24.20
2019-03-17T21:50:10.787Z,24.18
2019-03-17T21:52:40.482Z,24.17
2019-03-17T21:55:08.974Z,24.16
2019-03-17T21:57:36.727Z,24.17
2019-03-17T22:00:06.819Z,24.14
2019-03-17T22:02:35.242Z,24.08
2019-03-17T22:05:04.074Z,24.07
2019-03-17T22:07:32.918Z,24.06
2019-03-17T22:10:01.786Z,24.04
2019-03-17T22:12:29.513Z,24.03
2019-03-17T22:14:58.030Z,24.00
2019-03-17T22:17:25.667Z,24.00
2019-03-17T22:19:55.323Z,24.01
2019-03-17T22:22:23.321Z,24.01
2019-03-17T22:24:55.206Z,23.97
2019-03-17T22:27:23.960Z,24.00
2019-03-17T22:29:54.098Z,23.96
2019-03-17T22:32:22.833Z,23.94
2019-03-17T22:34:51.701Z,23.89
2019-03-17T22:37:19.632Z,23.92
2019-03-17T22:39:47.464Z,23.91
2019-03-17T22:42:15.164Z,23.89
2019-03-17T22:44:46.888Z,23.87
2019-03-17T22:47:16.153Z,23.89
2019-03-17T22:49:44.649Z,23.86
2019-03-17T22:52:13.209Z,23.83
2019-03-17T22:54:50.777Z,23.84
2019-03-17T22:57:18.974Z,23.79
2019-03-17T22:59:47.331Z,23.80
2019-03-17T23:02:15.300Z,23.84
2019-03-17T23:04:43.090Z,23.87
2019-03-17T23:07:10.729Z,23.85
2019-03-17T23:09:48.232Z,23.85
2019-03-17T23:12:16.498Z,23.81
2019-03-17T23:14:44.331Z,23.81
2019-03-17T23:17:12.059Z,23.86
2019-03-17T23:19:40.106Z,23.79
2019-03-17T23:22:08.273Z,23.78
2019-03-17T23:24:36.542Z,23.77
2019-03-17T23:27:04.262Z,23.78
2019-03-17T23:29:32.148Z,23.77
2019-03-17T23:31:59.950Z,23.80
2019-03-17T23:34:28.328Z,23.79
2019-03-17T23:36:56.475Z,23.79
2019-03-17T23:39:25.686Z,23.82
2019-03-17T23:41:53.225Z,23.81
2019-03-17T23:44:21.006Z,23.83
2019-03-17T23:46:48.831Z,23.84
2019-03-17T23:49:17.486Z,23.81
2019-03-17T23:51:47.049Z,23.77
2019-03-17T23:54:15.042Z,23.74
2019-03-17T23:56:44.008Z,23.75
2019-03-17T23:59:11.643Z,23.74
